Time;durP1;ratioP1;P1;durP2;ratioP2;P2;SDS_P1;SDS_P2;PMS_P1;PMS_P2;Temp;Humidity;BMP_temperature;BMP_pressure;BME280_temperature;BME280_humidity;BME280_pressure;Samples;Min_cycle;Max_cycle;Signal;HPM_P1;HPM_P2
2022/01/23 00:00:44;;;;;;;73.67;35.30;;;4.70;99.90;;;;;;5056779;28;20251;-43
2022/01/23 00:03:17;;;;;;;78.20;36.53;;;4.70;99.90;;;;;;5056967;28;20207;-42
2022/01/23 00:05:45;;;;;;;72.83;36.10;;;4.80;99.90;;;;;;5056626;28;20207;-42
2022/01/23 00:08:13;;;;;;;68.17;35.67;;;4.70;99.90;;;;;;5038225;28;20203;-42
2022/01/23 00:10:39;;;;;;;74.00;35.17;;;4.80;99.90;;;;;;5038369;28;20212;-42
2022/01/23 00:18:33;;;;;;;73.00;34.77;;;4.70;99.90;;;;;;5056494;28;20176;-44
2022/01/23 00:20:59;;;;;;;77.20;35.07;;;4.70;99.90;;;;;;5038359;28;20279;-42
2022/01/23 00:23:33;;;;;;;65.93;34.43;;;4.70;99.90;;;;;;5038360;28;20263;-41
2022/01/23 00:32:57;;;;;;;77.50;35.73;;;4.70;99.90;;;;;;4994694;28;20701;-42
2022/01/23 00:36:20;;;;;;;;;;;;;;;;;;;;;
2022/01/23 00:39:06;;;;;;;70.97;33.67;;;4.70;99.90;;;;;;5053599;28;20200;-42
2022/01/23 00:48:08;;;;;;;74.47;34.30;;;4.70;99.90;;;;;;5055450;28;20163;-44
2022/01/23 01:49:09;;;;;;;69.47;32.90;;;4.60;99.90;;;;;;5054237;28;20331;-41
2022/01/23 01:51:44;;;;;;;65.50;31.87;;;4.60;99.90;;;;;;5035807;28;20180;-43
2022/01/23 01:54:39;;;;;;;73.70;33.97;;;4.60;99.90;;;;;;5035207;28;20184;-42
2022/01/23 01:57:31;;;;;;;65.43;32.97;;;4.60;99.90;;;;;;5052737;28;20222;-41
2022/01/23 02:08:29;;;;;;;61.50;32.00;;;4.60;99.90;;;;;;5039517;28;20246;-43
2022/01/23 02:11:14;;;;;;;59.40;30.07;;;4.60;99.90;;;;;;5054507;28;20163;-41
2022/01/23 02:14:07;;;;;;;65.20;31.90;;;4.60;99.90;;;;;;5053677;28;20210;-42
2022/01/23 02:22:52;;;;;;;58.97;31.20;;;4.50;99.90;;;;;;5053952;28;20210;-43
2022/01/23 02:50:50;;;;;;;65.30;31.37;;;4.50;99.90;;;;;;5053807;28;20627;-42
2022/01/23 02:55:55;;;;;;;66.17;32.67;;;4.50;99.90;;;;;;5053078;28;20286;-41
2022/01/23 02:58:23;;;;;;;70.57;32.80;;;4.50;99.90;;;;;;5035473;28;20187;-41
2022/01/23 03:03:48;;;;;;;58.33;30.50;;;4.50;99.90;;;;;;5044265;28;20184;-41
2022/01/23 03:06:38;;;;;;;64.10;30.97;;;4.50;99.90;;;;;;5057246;28;20196;-42
2022/01/23 03:25:25;;;;;;;59.50;30.27;;;4.50;99.90;;;;;;5057737;28;20222;-43
2022/01/23 03:30:22;;;;;;;70.27;31.57;;;4.50;99.90;;;;;;5056892;28;20575;-42
2022/01/23 03:32:50;;;;;;;61.83;31.87;;;4.50;99.90;;;;;;5057481;28;20200;-42
2022/01/23 03:35:18;;;;;;;67.57;31.50;;;4.50;99.90;;;;;;5057266;28;20172;-42
2022/01/23 03:37:44;;;;;;;63.50;32.27;;;4.50;99.90;;;;;;5057554;28;20542;-42
2022/01/23 03:40:11;;;;;;;65.57;31.77;;;4.40;99.90;;;;;;5057923;28;20196;-43
2022/01/23 03:42:40;;;;;;;65.90;33.77;;;4.50;99.90;;;;;;5057622;28;20724;-42
2022/01/23 03:48:01;;;;;;;63.37;32.27;;;4.40;99.90;;;;;;5056801;28;20192;-40
2022/01/23 03:50:27;;;;;;;59.00;30.50;;;4.50;99.90;;;;;;5039601;28;20191;-42
2022/01/23 03:52:53;;;;;;;70.93;32.53;;;4.40;99.90;;;;;;5038741;28;20262;-42
2022/01/23 03:55:18;;;;;;;62.37;31.77;;;4.40;99.90;;;;;;5056579;28;20184;-41
2022/01/23 03:57:44;;;;;;;64.60;29.97;;;4.40;99.90;;;;;;5038352;28;20538;-44
2022/01/23 04:00:10;;;;;;;66.73;31.47;;;4.40;99.90;;;;;;5056628;28;20260;-45
2022/01/23 04:02:36;;;;;;;60.37;31.70;;;4.40;99.90;;;;;;5056109;28;20164;-40
2022/01/23 04:05:02;;;;;;;63.57;31.50;;;4.40;99.90;;;;;;5056409;28;20179;-41
2022/01/23 04:07:29;;;;;;;63.77;31.73;;;4.40;99.90;;;;;;5038265;28;20196;-42
2022/01/23 04:09:55;;;;;;;63.10;32.70;;;4.40;99.90;;;;;;5055962;28;20177;-41
2022/01/23 04:14:53;;;;;;;58.00;31.37;;;4.40;99.90;;;;;;5038660;28;20181;-42
2022/01/23 04:33:52;;;;;;;61.10;31.10;;;4.40;99.90;;;;;;5056261;28;20252;-42
2022/01/23 05:00:51;;;;;;;61.27;30.40;;;4.30;99.90;;;;;;5055622;28;20243;-42
2022/01/23 05:03:58;;;;;;;59.93;30.73;;;4.40;99.90;;;;;;5037421;28;20192;-41
2022/01/23 05:06:10;;;;;;;61.97;30.17;;;4.40;99.90;;;;;;5054665;28;20200;-42
2022/01/23 05:08:41;;;;;;;64.00;30.57;;;4.40;99.90;;;;;;5038600;28;20157;-43
2022/01/23 05:11:13;;;;;;;58.37;28.57;;;4.40;99.90;;;;;;5055326;28;20161;-41
2022/01/23 05:13:44;;;;;;;62.93;30.50;;;4.30;99.90;;;;;;5037099;28;20179;-43
2022/01/23 05:16:12;;;;;;;60.50;29.33;;;4.30;99.90;;;;;;5055075;28;20200;-44
2022/01/23 05:18:41;;;;;;;56.13;29.23;;;4.30;99.90;;;;;;5055285;28;20176;-42
2022/01/23 05:21:39;;;;;;;56.00;29.20;;;4.30;99.90;;;;;;5037019;28;20211;-45
2022/01/23 05:24:04;;;;;;;59.23;29.57;;;4.30;99.90;;;;;;5054564;28;20180;-42
2022/01/23 05:26:59;;;;;;;58.37;28.83;;;4.30;99.90;;;;;;5054711;28;20195;-42
2022/01/23 05:29:31;;;;;;;69.30;30.57;;;4.30;99.90;;;;;;5022326;28;20169;-43
2022/01/23 05:32:07;;;;;;;57.90;29.27;;;4.30;99.90;;;;;;5054544;28;20211;-42
2022/01/23 05:34:40;;;;;;;62.90;29.57;;;4.30;99.90;;;;;;5036773;28;20181;-41
2022/01/23 05:37:20;;;;;;;60.17;30.70;;;4.30;99.90;;;;;;5020689;28;20638;-42
2022/01/23 05:40:01;;;;;;;57.70;29.73;;;4.30;99.90;;;;;;5037003;28;20641;-42
2022/01/23 05:42:41;;;;;;;60.13;29.33;;;4.30;99.90;;;;;;5053209;28;20192;-43
2022/01/23 05:45:19;;;;;;;64.73;32.47;;;4.30;99.90;;;;;;5035602;28;20187;-42
2022/01/23 05:47:47;;;;;;;60.07;29.80;;;4.30;99.90;;;;;;5054039;28;20208;-43
2022/01/23 05:50:17;;;;;;;64.50;30.67;;;4.30;99.90;;;;;;5054277;28;20180;-44
2022/01/23 05:52:46;;;;;;;62.93;29.40;;;4.30;99.90;;;;;;5053984;28;20184;-40
2022/01/23 05:55:17;;;;;;;69.90;32.63;;;4.30;99.90;;;;;;5054007;28;20681;-41
2022/01/23 05:58:02;;;;;;;69.20;32.27;;;4.30;99.90;;;;;;5037332;28;20188;-42
2022/01/23 06:00:33;;;;;;;63.90;30.67;;;4.30;99.90;;;;;;5037735;28;20279;-44
2022/01/23 06:03:04;;;;;;;59.67;29.90;;;4.30;99.90;;;;;;5054804;28;20244;-43
2022/01/23 06:05:33;;;;;;;63.00;30.73;;;4.30;99.90;;;;;;5036798;28;20194;-43
2022/01/23 06:08:04;;;;;;;62.03;29.37;;;4.30;99.90;;;;;;5053838;28;20172;-44
2022/01/23 06:10:52;;;;;;;56.30;28.37;;;4.30;99.90;;;;;;5053997;28;20206;-43
2022/01/23 06:13:19;;;;;;;56.27;28.93;;;4.30;99.90;;;;;;5053621;28;20192;-42
2022/01/23 06:15:58;;;;;;;59.33;28.70;;;4.30;99.90;;;;;;5053848;28;20231;-43
2022/01/23 06:18:36;;;;;;;62.73;27.87;;;4.20;99.90;;;;;;5035995;28;20188;-42
2022/01/23 06:21:17;;;;;;;57.43;28.67;;;4.20;99.90;;;;;;5035737;28;20211;-44
2022/01/23 06:23:54;;;;;;;73.90;32.30;;;4.20;99.90;;;;;;5054151;28;20571;-44
2022/01/23 06:26:33;;;;;;;62.53;29.63;;;4.20;99.90;;;;;;5035843;28;20802;-42
2022/01/23 06:29:06;;;;;;;64.63;30.63;;;4.20;99.90;;;;;;5053706;28;20157;-43
2022/01/23 06:31:46;;;;;;;62.07;30.00;;;4.20;99.90;;;;;;5036630;28;20164;-44
2022/01/23 06:34:24;;;;;;;64.37;30.47;;;4.20;99.90;;;;;;5035755;28;20207;-41
2022/01/23 06:36:53;;;;;;;66.37;31.87;;;4.20;99.90;;;;;;5037066;28;20231;-41
2022/01/23 06:39:24;;;;;;;62.07;30.80;;;4.20;99.90;;;;;;5053418;28;20180;-42
2022/01/23 06:41:53;;;;;;;57.93;28.43;;;4.20;99.90;;;;;;5053883;28;20188;-44
2022/01/23 06:44:21;;;;;;;61.07;27.93;;;4.20;99.90;;;;;;5053807;28;20202;-44
2022/01/23 06:46:48;;;;;;;59.67;28.23;;;4.20;99.90;;;;;;5035625;28;20199;-42
2022/01/23 06:49:14;;;;;;;59.80;28.20;;;4.20;99.90;;;;;;5053252;28;20195;-42
2022/01/23 06:51:42;;;;;;;59.83;29.07;;;4.20;99.90;;;;;;5053556;28;20187;-43
2022/01/23 06:54:09;;;;;;;59.03;29.60;;;4.20;99.90;;;;;;5053567;28;20249;-43
2022/01/23 06:56:35;;;;;;;65.77;29.33;;;4.20;99.90;;;;;;5053380;28;20200;-42
2022/01/23 06:59:01;;;;;;;65.13;30.87;;;4.20;99.90;;;;;;5053597;28;20176;-43
2022/01/23 07:01:28;;;;;;;62.73;28.93;;;4.20;99.90;;;;;;5053146;28;20200;-43
2022/01/23 07:03:54;;;;;;;57.50;28.43;;;4.20;99.90;;;;;;5035478;28;20176;-45
2022/01/23 07:06:21;;;;;;;65.27;29.53;;;4.20;99.90;;;;;;5053490;28;20197;-44
2022/01/23 07:08:47;;;;;;;56.87;27.90;;;4.10;99.90;;;;;;5053863;28;20183;-42
2022/01/23 07:11:14;;;;;;;62.80;29.07;;;4.20;99.90;;;;;;5057053;28;20244;-43
2022/01/23 07:13:41;;;;;;;57.77;27.40;;;4.10;99.90;;;;;;5068177;28;20172;-42
2022/01/23 07:16:06;;;;;;;57.30;27.37;;;4.20;99.90;;;;;;5049322;28;20200;-44
2022/01/23 07:18:32;;;;;;;54.70;27.07;;;4.20;99.90;;;;;;5056114;28;20597;-43
2022/01/23 07:20:58;;;;;;;53.93;26.77;;;4.10;99.90;;;;;;5035111;28;20257;-42
2022/01/23 07:23:24;;;;;;;59.10;28.70;;;4.10;99.90;;;;;;5053031;28;20180;-42
2022/01/23 07:25:51;;;;;;;63.90;29.97;;;4.10;99.90;;;;;;5053149;28;20192;-44
2022/01/23 07:28:21;;;;;;;62.00;30.63;;;4.10;99.90;;;;;;5053144;28;20207;-43
2022/01/23 07:30:52;;;;;;;57.73;29.50;;;4.10;99.90;;;;;;5052945;28;20172;-44
2022/01/23 07:33:19;;;;;;;61.47;28.60;;;4.10;99.90;;;;;;5053547;28;20165;-43
2022/01/23 07:35:47;;;;;;;69.50;32.23;;;4.10;99.90;;;;;;5052766;28;20200;-42
2022/01/23 07:38:16;;;;;;;66.97;31.63;;;4.10;99.90;;;;;;5035119;28;20188;-44
2022/01/23 07:40:45;;;;;;;66.00;30.23;;;4.10;99.90;;;;;;5052819;28;20201;-44
2022/01/23 07:43:12;;;;;;;66.30;31.50;;;4.10;99.90;;;;;;5052726;28;20183;-42
2022/01/23 07:45:38;;;;;;;69.83;34.67;;;4.10;99.90;;;;;;5053146;28;20196;-42
2022/01/23 07:48:05;;;;;;;72.20;33.37;;;4.10;99.90;;;;;;5052710;28;20188;-42
2022/01/23 07:50:30;;;;;;;72.37;36.87;;;4.20;99.90;;;;;;5052778;28;20183;-44
2022/01/23 07:52:56;;;;;;;83.30;36.03;;;4.20;99.90;;;;;;5056308;28;20172;-43
2022/01/23 07:55:22;;;;;;;81.40;36.40;;;4.20;99.90;;;;;;5056689;28;20707;-41
2022/01/23 07:57:48;;;;;;;74.00;35.03;;;4.20;99.90;;;;;;5038526;28;20188;-43
2022/01/23 08:00:14;;;;;;;101.00;43.60;;;4.20;99.90;;;;;;5038611;28;20200;-42
2022/01/23 08:02:41;;;;;;;81.77;34.70;;;4.20;99.90;;;;;;5056400;28;20181;-43
2022/01/23 08:05:09;;;;;;;86.87;36.77;;;4.30;99.90;;;;;;5038500;28;20263;-44
2022/01/23 08:07:36;;;;;;;106.70;47.00;;;4.30;99.90;;;;;;5056251;28;20183;-44
2022/01/23 08:10:06;;;;;;;72.53;33.17;;;4.30;99.90;;;;;;5038147;28;20194;-43
2022/01/23 08:12:32;;;;;;;77.53;33.67;;;4.30;99.90;;;;;;5056213;28;20594;-42
2022/01/23 08:14:59;;;;;;;75.03;33.07;;;4.30;99.90;;;;;;5056075;28;20672;-41
2022/01/23 08:17:26;;;;;;;89.97;38.07;;;4.40;99.90;;;;;;5038089;28;20192;-41
2022/01/23 08:19:53;;;;;;;84.97;33.70;;;4.30;99.90;;;;;;5056562;28;20168;-43
2022/01/23 08:22:20;;;;;;;76.30;33.27;;;4.30;99.90;;;;;;5056192;28;20584;-45
2022/01/23 08:24:46;;;;;;;72.03;32.03;;;4.30;99.90;;;;;;5055886;28;20616;-44
2022/01/23 08:27:11;;;;;;;75.47;32.43;;;4.40;99.90;;;;;;5055891;28;20220;-42
2022/01/23 08:29:37;;;;;;;82.20;33.27;;;4.40;99.90;;;;;;5055701;28;20234;-44
2022/01/23 08:32:03;;;;;;;91.43;36.13;;;4.40;99.90;;;;;;5056304;28;20260;-43
2022/01/23 08:34:28;;;;;;;83.57;35.20;;;4.40;99.90;;;;;;5055557;28;20283;-41
2022/01/23 08:36:55;;;;;;;102.60;38.70;;;4.40;99.90;;;;;;5055875;28;20203;-43
2022/01/23 08:39:24;;;;;;;98.90;39.37;;;4.40;99.90;;;;;;5037747;28;20247;-41
2022/01/23 08:41:50;;;;;;;103.43;42.47;;;4.50;99.90;;;;;;5037512;28;20204;-42
2022/01/23 08:44:27;;;;;;;101.07;42.23;;;4.50;99.90;;;;;;5055393;28;20246;-41
2022/01/23 08:46:53;;;;;;;84.13;34.07;;;4.50;99.90;;;;;;5055326;28;20203;-42
2022/01/23 08:49:22;;;;;;;83.03;33.13;;;4.50;99.90;;;;;;5055347;28;20184;-42
2022/01/23 08:51:49;;;;;;;96.30;36.33;;;4.50;99.90;;;;;;5055310;28;20256;-42
2022/01/23 08:54:15;;;;;;;83.77;34.67;;;4.60;99.90;;;;;;5055648;28;20374;-42
2022/01/23 08:56:41;;;;;;;86.87;34.47;;;4.60;99.90;;;;;;5055054;28;20200;-41
2022/01/23 08:59:07;;;;;;;92.93;37.07;;;4.60;99.90;;;;;;5055165;28;20177;-43
2022/01/23 09:01:34;;;;;;;99.80;36.53;;;4.60;99.90;;;;;;5037238;28;20211;-44
2022/01/23 09:04:00;;;;;;;99.20;38.13;;;4.60;99.90;;;;;;5036894;28;20172;-43
2022/01/23 09:06:26;;;;;;;93.37;36.40;;;4.70;99.90;;;;;;5037017;28;20250;-43
2022/01/23 09:08:53;;;;;;;88.07;34.27;;;4.70;99.90;;;;;;5054960;28;20172;-42
2022/01/23 09:11:40;;;;;;;89.77;34.20;;;4.70;99.90;;;;;;5037028;28;20191;-43
2022/01/23 09:14:10;;;;;;;88.47;34.63;;;4.70;99.90;;;;;;5037084;28;20260;-44
2022/01/23 09:16:41;;;;;;;91.50;33.17;;;4.80;99.90;;;;;;5055158;28;20208;-41
2022/01/23 09:19:08;;;;;;;96.03;34.47;;;4.70;99.90;;;;;;5036786;28;20192;-44
2022/01/23 09:21:35;;;;;;;96.70;35.27;;;4.80;99.90;;;;;;5054789;28;20188;-42
2022/01/23 09:24:01;;;;;;;97.67;35.10;;;4.80;99.90;;;;;;5054825;28;20261;-42
2022/01/23 09:26:28;;;;;;;104.07;36.70;;;4.80;99.90;;;;;;5036632;28;20196;-41
2022/01/23 09:28:58;;;;;;;106.77;35.87;;;4.80;99.90;;;;;;5054483;28;20191;-41
2022/01/23 09:31:32;;;;;;;100.23;36.13;;;4.80;99.90;;;;;;5036544;28;20168;-42
2022/01/23 09:33:58;;;;;;;100.17;35.23;;;4.90;99.90;;;;;;5054391;28;20191;-41
2022/01/23 09:36:24;;;;;;;98.13;35.73;;;4.90;99.90;;;;;;5054543;28;20247;-43
2022/01/23 09:38:50;;;;;;;99.77;36.07;;;4.90;99.90;;;;;;5036417;28;20184;-42
2022/01/23 09:41:20;;;;;;;86.37;34.13;;;4.90;99.90;;;;;;5036228;28;20279;-42
2022/01/23 09:43:49;;;;;;;93.27;35.93;;;4.90;99.90;;;;;;5036578;28;20210;-42
2022/01/23 09:46:15;;;;;;;96.03;36.37;;;5.00;99.90;;;;;;5054128;28;20218;-42
2022/01/23 09:48:47;;;;;;;101.70;37.30;;;5.00;99.90;;;;;;5054222;28;20686;-40
2022/01/23 09:51:13;;;;;;;94.87;34.60;;;5.00;99.90;;;;;;5054040;28;20257;-42
2022/01/23 09:53:40;;;;;;;87.40;35.13;;;5.00;99.90;;;;;;5053996;28;20233;-44
2022/01/23 09:56:09;;;;;;;95.20;34.43;;;5.10;99.90;;;;;;5053886;28;20207;-44
2022/01/23 09:58:38;;;;;;;94.67;36.50;;;5.10;99.90;;;;;;5054204;28;20532;-43
2022/01/23 10:01:04;;;;;;;84.53;33.40;;;5.10;99.90;;;;;;5035817;28;20246;-42
2022/01/23 10:03:30;;;;;;;88.23;35.00;;;5.10;99.90;;;;;;5054466;28;20183;-43
2022/01/23 10:05:57;;;;;;;83.10;33.07;;;5.10;99.90;;;;;;5053757;28;20194;-42
2022/01/23 10:08:29;;;;;;;84.47;33.60;;;5.20;99.90;;;;;;5053770;28;20248;-44
2022/01/23 10:10:56;;;;;;;85.47;34.40;;;5.20;99.90;;;;;;5035816;28;20168;-41
2022/01/23 10:13:26;;;;;;;80.63;33.33;;;5.20;99.90;;;;;;5053746;28;20181;-43
2022/01/23 10:15:52;;;;;;;90.67;33.27;;;5.20;99.90;;;;;;5035385;28;20211;-43
2022/01/23 10:18:28;;;;;;;95.93;34.37;;;5.20;99.90;;;;;;5053955;28;20176;-43
2022/01/23 10:20:58;;;;;;;78.17;32.97;;;5.30;99.90;;;;;;5053445;28;20203;-42
2022/01/23 10:23:30;;;;;;;79.37;32.37;;;5.30;99.90;;;;;;5053562;28;20539;-43
2022/01/23 10:26:05;;;;;;;91.63;35.03;;;5.40;99.90;;;;;;5053152;28;20232;-42
2022/01/23 10:28:37;;;;;;;90.63;34.03;;;5.40;99.90;;;;;;5053415;28;20157;-43
2022/01/23 10:31:17;;;;;;;83.30;33.70;;;5.40;99.90;;;;;;5035593;28;20574;-41
2022/01/23 10:34:04;;;;;;;80.97;33.40;;;5.50;99.90;;;;;;5053363;28;20173;-42
2022/01/23 10:36:54;;;;;;;76.20;31.80;;;5.50;99.90;;;;;;5053172;28;20206;-44
2022/01/23 10:39:28;;;;;;;83.60;32.53;;;5.50;99.90;;;;;;5053671;28;20520;-42
2022/01/23 10:42:47;;;;;;;87.60;31.97;;;5.60;99.90;;;;;;5053177;28;20197;-43
2022/01/23 10:48:35;;;;;;;74.63;31.77;;;5.60;99.90;;;;;;5043132;28;20322;-44
2022/01/23 10:54:42;;;;;;;78.27;32.77;;;5.70;99.90;;;;;;5056890;28;20203;-41
2022/01/23 10:57:30;;;;;;;73.27;32.53;;;5.80;99.90;;;;;;5051771;28;20231;-45
2022/01/23 11:00:03;;;;;;;80.43;33.10;;;5.80;99.90;;;;;;5019597;28;20193;-42
2022/01/23 11:02:47;;;;;;;76.73;30.97;;;5.80;99.90;;;;;;5053634;28;20177;-44
2022/01/23 11:05:39;;;;;;;80.27;31.93;;;5.90;99.90;;;;;;5053577;28;20169;-43
2022/01/23 11:08:35;;;;;;;79.90;31.13;;;5.90;99.90;;;;;;5019768;28;20654;-45
2022/01/23 11:11:15;;;;;;;77.43;33.67;;;6.00;99.90;;;;;;5053050;28;20271;-43
2022/01/23 11:19:49;;;;;;;63.47;30.70;;;6.00;99.90;;;;;;5053084;28;20682;-45
2022/01/23 11:22:40;;;;;;;67.67;31.27;;;6.10;99.90;;;;;;5021048;28;20708;-41
2022/01/23 11:25:24;;;;;;;66.57;30.67;;;6.10;99.90;;;;;;5021947;28;20165;-42
2022/01/23 11:28:11;;;;;;;60.77;29.33;;;6.20;99.90;;;;;;5039488;28;20250;-43
2022/01/23 11:31:02;;;;;;;64.20;29.70;;;6.20;99.90;;;;;;5055931;28;20166;-41
2022/01/23 11:33:29;;;;;;;59.23;29.47;;;6.20;99.90;;;;;;5023809;28;20185;-43
2022/01/23 11:35:55;;;;;;;66.33;30.93;;;6.20;99.90;;;;;;5056759;28;20661;-44
2022/01/23 11:38:22;;;;;;;63.23;29.50;;;6.30;99.90;;;;;;5056643;28;20181;-45
2022/01/23 11:54:52;;;;;;;56.40;28.30;;;6.40;99.90;;;;;;5056873;28;20171;-44
2022/01/23 11:57:42;;;;;;;57.27;28.33;;;6.40;99.90;;;;;;5056192;28;20200;-43
2022/01/23 12:00:26;;;;;;;59.43;29.67;;;6.40;99.90;;;;;;5056070;28;20319;-45
2022/01/23 12:03:15;;;;;;;62.43;28.77;;;6.50;99.90;;;;;;5056653;28;20167;-45
2022/01/23 12:05:47;;;;;;;58.20;28.87;;;6.50;99.90;;;;;;5055981;28;20757;-46
2022/01/23 12:08:32;;;;;;;53.63;27.80;;;6.50;99.90;;;;;;5056345;28;20168;-43
2022/01/23 12:11:38;;;;;;;56.27;28.03;;;6.60;99.90;;;;;;5056555;28;20160;-45
2022/01/23 12:17:05;;;;;;;55.50;27.00;;;6.60;99.90;;;;;;5056171;28;20304;-46
2022/01/23 12:19:32;;;;;;;55.23;27.70;;;6.60;99.90;;;;;;5038041;28;20181;-45
2022/01/23 12:22:18;;;;;;;52.93;26.30;;;6.70;99.90;;;;;;5055772;28;20229;-44
2022/01/23 12:24:49;;;;;;;52.73;26.57;;;6.70;99.90;;;;;;5056420;28;20695;-43
2022/01/23 12:27:29;;;;;;;57.60;27.23;;;6.70;99.90;;;;;;5055894;28;20681;-45
2022/01/23 12:30:14;;;;;;;48.53;26.67;;;6.80;99.90;;;;;;5055617;28;20204;-43
2022/01/23 12:32:40;;;;;;;48.97;27.37;;;6.80;99.90;;;;;;5023866;28;20190;-43
2022/01/23 12:35:08;;;;;;;48.00;25.63;;;6.80;99.90;;;;;;5055581;28;20521;-48
2022/01/23 12:38:10;;;;;;;48.40;27.10;;;6.80;99.90;;;;;;5037091;28;20221;-45
2022/01/23 12:40:41;;;;;;;47.73;25.60;;;6.80;99.90;;;;;;4975070;28;20308;-45
2022/01/23 12:43:12;;;;;;;45.20;26.03;;;6.80;99.90;;;;;;5042067;28;20205;-43
2022/01/23 12:46:08;;;;;;;51.50;26.87;;;6.90;99.90;;;;;;5055363;28;20259;-45
2022/01/23 12:48:40;;;;;;;45.57;25.47;;;6.90;99.90;;;;;;5055324;28;20700;-45
2022/01/23 12:51:13;;;;;;;48.20;27.97;;;6.90;99.90;;;;;;5037304;28;20179;-45
2022/01/23 12:53:58;;;;;;;46.90;25.30;;;6.90;99.90;;;;;;5038134;28;20183;-46
2022/01/23 12:56:34;;;;;;;54.97;27.27;;;6.90;99.90;;;;;;5054907;28;20205;-45
2022/01/23 12:59:12;;;;;;;46.70;25.17;;;6.90;99.90;;;;;;5055409;28;20160;-46
2022/01/23 13:01:42;;;;;;;46.47;26.30;;;6.90;99.90;;;;;;5055052;28;20187;-45
2022/01/23 13:04:08;;;;;;;43.23;24.83;;;6.90;99.90;;;;;;5055312;28;20244;-45
2022/01/23 13:06:52;;;;;;;46.27;24.63;;;6.90;99.90;;;;;;5055049;28;20195;-45
2022/01/23 13:09:46;;;;;;;48.73;25.13;;;7.00;99.90;;;;;;5055466;28;20156;-45
2022/01/23 13:12:30;;;;;;;44.60;25.53;;;7.00;99.90;;;;;;5037026;28;20241;-46
2022/01/23 13:31:17;;;;;;;41.00;24.00;;;7.00;99.90;;;;;;5054766;28;20191;-47
2022/01/23 13:33:43;;;;;;;42.87;23.63;;;7.10;99.90;;;;;;5054412;28;20182;-44
2022/01/23 13:36:10;;;;;;;39.53;24.30;;;7.10;99.90;;;;;;5054361;28;20235;-46
2022/01/23 13:38:38;;;;;;;41.50;24.73;;;7.10;99.90;;;;;;5054621;28;20331;-46
2022/01/23 13:41:14;;;;;;;43.87;23.90;;;7.10;99.90;;;;;;5054259;28;20277;-47
2022/01/23 13:52:01;;;;;;;44.87;23.33;;;7.20;99.90;;;;;;5054399;28;20188;-47
2022/01/23 13:58:03;;;;;;;44.80;23.87;;;7.20;99.90;;;;;;5054071;28;20214;-46
2022/01/23 14:02:49;;;;;;;42.53;25.00;;;7.30;99.90;;;;;;5054266;28;20174;-45
2022/01/23 14:05:22;;;;;;;41.27;23.13;;;7.20;99.90;;;;;;5050021;28;20194;-45
2022/01/23 14:07:53;;;;;;;40.30;24.13;;;7.20;99.90;;;;;;5053945;28;20523;-45
2022/01/23 14:10:32;;;;;;;44.00;24.70;;;7.20;99.90;;;;;;5054120;28;20269;-44
2022/01/23 14:13:08;;;;;;;46.37;25.13;;;7.20;99.90;;;;;;5035940;28;20230;-44
2022/01/23 14:15:34;;;;;;;43.60;23.30;;;7.20;99.90;;;;;;5053873;28;20226;-45
2022/01/23 14:18:09;;;;;;;44.10;25.33;;;7.20;99.90;;;;;;5053801;28;20214;-46
2022/01/23 14:20:38;;;;;;;48.77;26.63;;;7.20;99.90;;;;;;5053963;28;20205;-45
2022/01/23 14:23:17;;;;;;;42.80;23.37;;;7.10;99.90;;;;;;5053798;28;20179;-45
2022/01/23 14:25:50;;;;;;;42.40;23.53;;;7.10;99.90;;;;;;5036540;28;20203;-45
2022/01/23 14:28:20;;;;;;;43.50;23.40;;;7.10;99.90;;;;;;5055340;28;20268;-46
2022/01/23 14:30:49;;;;;;;47.47;25.50;;;7.10;99.90;;;;;;5056082;28;20259;-45
2022/01/23 14:33:24;;;;;;;48.87;29.70;;;7.00;99.90;;;;;;5036224;28;20180;-45
2022/01/23 14:35:51;;;;;;;47.17;25.67;;;7.00;99.90;;;;;;5053566;28;20270;-43
2022/01/23 14:38:26;;;;;;;37.37;23.13;;;7.00;99.90;;;;;;5053654;28;20241;-44
2022/01/23 14:41:01;;;;;;;44.03;25.57;;;7.00;99.90;;;;;;5053574;28;20285;-46
2022/01/23 14:43:39;;;;;;;44.40;26.00;;;7.00;99.90;;;;;;5053248;28;20563;-44
2022/01/23 14:46:07;;;;;;;44.00;23.77;;;7.00;99.90;;;;;;5053170;28;20676;-44
2022/01/23 14:48:40;;;;;;;49.40;26.60;;;7.00;99.90;;;;;;5053076;28;20203;-46
2022/01/23 14:51:07;;;;;;;41.30;23.60;;;6.90;99.90;;;;;;5047000;22;20402;-44
2022/01/23 14:53:35;;;;;;;39.07;21.60;;;6.90;99.90;;;;;;5034318;28;20176;-45
2022/01/23 14:56:04;;;;;;;39.07;21.73;;;7.00;99.90;;;;;;5033952;28;20199;-45
2022/01/23 14:58:32;;;;;;;36.30;21.17;;;6.90;99.90;;;;;;5033719;28;20203;-45
2022/01/23 15:00:58;;;;;;;34.23;20.20;;;6.90;99.90;;;;;;5037718;28;20274;-43
2022/01/23 15:03:26;;;;;;;33.60;20.50;;;7.00;99.90;;;;;;5040735;28;20727;-43
2022/01/23 15:05:52;;;;;;;32.33;19.30;;;6.90;99.90;;;;;;5040555;28;20200;-45
2022/01/23 15:08:22;;;;;;;41.97;21.43;;;6.90;99.90;;;;;;5039257;28;20717;-45
2022/01/23 15:10:50;;;;;;;43.07;23.47;;;6.90;99.90;;;;;;5040636;28;20177;-46
2022/01/23 15:13:16;;;;;;;36.97;20.53;;;6.90;99.90;;;;;;5039005;28;20251;-45
2022/01/23 15:15:42;;;;;;;35.10;21.80;;;6.90;99.90;;;;;;5038873;28;20196;-44
2022/01/23 15:18:08;;;;;;;39.00;22.27;;;6.90;99.90;;;;;;5040480;28;20283;-45
2022/01/23 15:20:35;;;;;;;37.10;22.97;;;6.80;99.90;;;;;;5040551;28;20293;-45
2022/01/23 15:23:02;;;;;;;39.53;22.83;;;6.80;99.90;;;;;;5040567;28;20175;-44
2022/01/23 15:25:28;;;;;;;43.13;22.60;;;6.80;99.90;;;;;;5040567;28;20196;-44
2022/01/23 15:27:57;;;;;;;41.00;23.07;;;6.80;99.90;;;;;;5040646;28;20184;-45
2022/01/23 15:30:24;;;;;;;35.57;21.73;;;6.70;99.90;;;;;;5040315;28;20642;-44
2022/01/23 15:32:51;;;;;;;38.93;22.77;;;6.70;99.90;;;;;;5041012;28;20305;-45
2022/01/23 15:35:18;;;;;;;38.17;21.57;;;6.60;99.90;;;;;;5039000;28;20663;-45
2022/01/23 15:37:44;;;;;;;38.10;21.83;;;6.70;99.90;;;;;;5040406;28;20274;-45
2022/01/23 15:40:12;;;;;;;41.80;22.37;;;6.60;99.90;;;;;;5040587;28;20264;-44
2022/01/23 15:42:39;;;;;;;36.43;20.30;;;6.60;99.90;;;;;;5041098;28;20591;-46
2022/01/23 15:45:06;;;;;;;37.10;21.37;;;6.60;99.90;;;;;;5041072;28;20258;-46
2022/01/23 15:47:32;;;;;;;34.57;20.97;;;6.50;99.90;;;;;;5041514;28;20226;-45
2022/01/23 15:49:58;;;;;;;38.63;21.60;;;6.50;99.90;;;;;;5041253;28;20173;-46
2022/01/23 15:52:24;;;;;;;35.37;20.43;;;6.50;99.90;;;;;;5041149;28;20165;-44
2022/01/23 15:54:49;;;;;;;35.73;20.27;;;6.50;99.90;;;;;;5041236;28;20191;-46
2022/01/23 15:57:16;;;;;;;38.63;20.40;;;6.50;99.90;;;;;;5041715;28;20190;-45
2022/01/23 15:59:42;;;;;;;37.40;19.30;;;6.40;99.90;;;;;;5043612;28;20185;-43
2022/01/23 16:02:08;;;;;;;35.70;20.23;;;6.40;99.90;;;;;;5042786;28;20208;-46
2022/01/23 16:04:37;;;;;;;36.40;21.47;;;6.40;99.90;;;;;;5038798;28;20188;-49
2022/01/23 16:07:11;;;;;;;40.60;20.57;;;6.40;99.90;;;;;;5039572;28;20604;-46
2022/01/23 16:09:37;;;;;;;39.87;22.60;;;6.40;99.90;;;;;;5040190;28;20156;-45
2022/01/23 16:12:03;;;;;;;33.50;20.43;;;6.30;99.90;;;;;;5036086;28;20187;-44
2022/01/23 16:14:28;;;;;;;35.70;20.27;;;6.30;99.90;;;;;;5035404;28;20187;-44
2022/01/23 16:16:55;;;;;;;37.37;20.80;;;6.30;99.90;;;;;;5035193;28;20294;-45
2022/01/23 16:19:20;;;;;;;36.87;20.23;;;6.20;99.90;;;;;;5037195;28;20184;-43
2022/01/23 16:21:47;;;;;;;42.43;21.63;;;6.20;99.90;;;;;;5036657;28;20568;-44
2022/01/23 16:24:13;;;;;;;45.23;21.90;;;6.20;99.90;;;;;;5036335;28;20178;-43
2022/01/23 16:26:39;;;;;;;36.90;20.87;;;6.20;99.90;;;;;;5036534;28;20191;-45
2022/01/23 16:29:05;;;;;;;39.20;22.57;;;6.20;99.90;;;;;;5036715;28;20180;-43
2022/01/23 16:31:31;;;;;;;44.53;25.83;;;6.10;99.90;;;;;;5035285;28;20183;-45
2022/01/23 16:33:57;;;;;;;47.87;25.90;;;6.10;99.90;;;;;;5036237;28;20186;-44
2022/01/23 16:36:26;;;;;;;59.07;30.67;;;6.10;99.90;;;;;;5036300;28;20206;-45
2022/01/23 16:38:52;;;;;;;45.40;24.70;;;6.10;99.90;;;;;;5036472;28;20637;-44
2022/01/23 16:41:18;;;;;;;42.33;22.27;;;6.10;99.90;;;;;;5036157;28;20253;-46
2022/01/23 16:43:44;;;;;;;41.00;23.03;;;6.10;99.90;;;;;;5034745;28;20186;-44
2022/01/23 16:46:10;;;;;;;40.43;21.83;;;6.00;99.90;;;;;;5034678;28;20223;-46
2022/01/23 16:48:36;;;;;;;37.37;21.90;;;6.00;99.90;;;;;;5036339;28;20205;-45
2022/01/23 16:51:03;;;;;;;38.73;21.67;;;6.00;99.90;;;;;;5036010;28;20699;-44
2022/01/23 16:53:29;;;;;;;37.10;20.83;;;6.00;99.90;;;;;;5036541;28;20228;-44
2022/01/23 16:55:56;;;;;;;43.53;24.73;;;5.90;99.90;;;;;;5036677;28;20204;-45
2022/01/23 16:58:28;;;;;;;46.00;24.27;;;5.90;99.90;;;;;;5036956;28;20190;-45
2022/01/23 17:00:54;;;;;;;42.20;24.77;;;5.90;99.90;;;;;;5034370;28;20301;-43
2022/01/23 17:03:21;;;;;;;42.37;24.30;;;5.90;99.90;;;;;;5034643;28;20769;-44
2022/01/23 17:05:47;;;;;;;45.77;25.90;;;5.90;99.90;;;;;;5035979;28;20207;-44
2022/01/23 17:08:14;;;;;;;44.63;25.73;;;5.90;99.90;;;;;;5035784;28;20581;-43